Time;durP1;ratioP1;P1;durP2;ratioP2;P2;SDS_P1;SDS_P2;PMS_P1;PMS_P2;Temp;Humidity;BMP_temperature;BMP_pressure;BME280_temperature;BME280_humidity;BME280_pressure;Samples;Min_cycle;Max_cycle;Signal;HPM_P1;HPM_P2
2024/04/11 00:02:06;;;;;;;6.07;3.67;;;10.40;97.90;;;;;;5419707;26;20520;-69
2024/04/11 00:04:32;;;;;;;11.00;3.97;;;10.40;98.00;;;;;;5391037;26;20019;-76
2024/04/11 00:06:58;;;;;;;9.27;4.20;;;10.40;98.10;;;;;;5388678;26;20444;-69
2024/04/11 00:09:24;;;;;;;12.10;4.10;;;10.40;98.10;;;;;;5383754;26;20134;-70
2024/04/11 00:11:49;;;;;;;13.90;4.57;;;10.40;98.20;;;;;;5416950;26;20876;-70
2024/04/11 00:14:15;;;;;;;8.93;4.00;;;10.30;98.10;;;;;;5431781;26;20003;-70
2024/04/11 00:16:40;;;;;;;12.27;3.75;;;10.30;98.20;;;;;;5431771;26;19991;-69
2024/04/11 00:19:06;;;;;;;7.50;3.80;;;10.30;98.20;;;;;;5428892;26;20055;-69
2024/04/11 00:21:32;;;;;;;6.88;3.78;;;10.30;98.20;;;;;;5432003;26;20036;-68
2024/04/11 00:23:57;;;;;;;10.52;3.85;;;10.30;98.30;;;;;;5437775;26;20021;-70
2024/04/11 00:26:23;;;;;;;9.02;4.13;;;10.30;98.40;;;;;;5434315;25;19995;-69
2024/04/11 00:28:49;;;;;;;7.38;3.58;;;10.30;98.40;;;;;;5426998;26;20422;-71
2024/04/11 00:31:15;;;;;;;7.47;3.95;;;10.20;98.30;;;;;;5433370;26;20010;-71
2024/04/11 00:33:54;;;;;;;9.20;3.75;;;10.20;98.40;;;;;;5435708;26;20607;-70
2024/04/11 00:36:23;;;;;;;11.35;4.30;;;10.20;98.40;;;;;;5436343;26;19991;-70
2024/04/11 00:38:50;;;;;;;11.50;3.58;;;10.20;98.30;;;;;;5426470;26;20002;-73
2024/04/11 00:41:17;;;;;;;9.15;3.95;;;10.20;98.50;;;;;;5433086;26;19995;-70
2024/04/11 00:43:43;;;;;;;10.52;3.78;;;10.10;98.60;;;;;;5430836;26;20180;-69
2024/04/11 00:46:09;;;;;;;9.00;4.22;;;10.10;98.60;;;;;;5426133;26;20007;-70
2024/04/11 00:48:36;;;;;;;9.25;3.97;;;10.10;98.60;;;;;;5432961;26;20018;-70
2024/04/11 00:51:03;;;;;;;12.80;4.28;;;10.10;98.70;;;;;;5430736;26;20009;-71
2024/04/11 00:53:30;;;;;;;12.70;4.10;;;10.10;98.60;;;;;;5434496;26;20000;-70
2024/04/11 00:55:56;;;;;;;7.15;3.53;;;10.00;98.80;;;;;;5430612;26;20007;-70
2024/04/11 00:58:24;;;;;;;11.80;4.32;;;10.00;98.80;;;;;;5433537;25;22278;-72
2024/04/11 01:00:49;;;;;;;9.63;4.05;;;10.00;98.80;;;;;;5433684;26;20006;-70
2024/04/11 01:03:16;;;;;;;9.40;4.07;;;10.00;98.90;;;;;;5402974;26;20036;-71
2024/04/11 01:05:41;;;;;;;6.85;4.13;;;10.00;98.80;;;;;;5397690;26;20076;-70
2024/04/11 01:08:07;;;;;;;9.32;4.03;;;10.00;98.80;;;;;;5399115;26;20007;-70
2024/04/11 01:10:34;;;;;;;9.82;3.70;;;10.00;98.80;;;;;;5394951;26;20007;-69
2024/04/11 01:13:01;;;;;;;12.65;3.78;;;10.00;98.90;;;;;;5395872;26;19997;-71
2024/04/11 01:15:27;;;;;;;9.20;4.28;;;10.00;98.80;;;;;;5405517;26;20759;-70
2024/04/11 01:17:52;;;;;;;6.95;3.83;;;9.90;99.30;;;;;;5429749;26;19999;-70
2024/04/11 01:20:18;;;;;;;14.18;3.63;;;9.90;99.30;;;;;;5435704;26;20075;-70
2024/04/11 01:22:44;;;;;;;8.02;3.42;;;9.90;99.20;;;;;;5441332;26;19994;-70
2024/04/11 01:25:09;;;;;;;6.30;3.50;;;9.90;99.30;;;;;;5423577;26;20058;-72
2024/04/11 01:27:35;;;;;;;5.97;3.55;;;9.90;99.40;;;;;;5432109;26;19995;-69
2024/04/11 01:30:02;;;;;;;8.95;3.72;;;9.90;99.40;;;;;;5437206;26;20029;-69
2024/04/11 01:32:29;;;;;;;13.50;4.38;;;9.90;99.40;;;;;;5425743;25;20499;-69
2024/04/11 01:34:56;;;;;;;9.80;3.60;;;9.90;99.30;;;;;;5429594;26;20067;-70
2024/04/11 01:37:25;;;;;;;9.07;3.78;;;9.90;99.40;;;;;;5435641;26;20007;-73
2024/04/11 01:39:51;;;;;;;9.25;3.63;;;9.90;99.10;;;;;;5435775;26;20014;-70
2024/04/11 01:42:18;;;;;;;10.98;3.38;;;9.90;99.20;;;;;;5433104;26;20014;-69
2024/04/11 01:44:44;;;;;;;10.57;3.88;;;9.90;99.50;;;;;;5435122;26;20018;-70
2024/04/11 01:47:14;;;;;;;10.95;3.35;;;9.90;99.20;;;;;;5425010;26;20570;-70
2024/04/11 01:49:40;;;;;;;9.10;3.25;;;9.90;99.10;;;;;;5432113;26;20005;-70
2024/04/11 01:52:09;;;;;;;8.88;3.75;;;9.90;99.20;;;;;;5433781;26;20005;-69
2024/04/11 01:54:39;;;;;;;10.43;3.33;;;9.90;99.10;;;;;;5435934;26;20180;-69
2024/04/11 01:57:06;;;;;;;9.05;3.25;;;9.90;99.10;;;;;;5426442;26;20019;-69
2024/04/11 01:59:31;;;;;;;11.18;3.17;;;9.90;99.10;;;;;;5432485;26;19998;-70
2024/04/11 02:01:57;;;;;;;14.15;3.90;;;9.90;99.00;;;;;;5431833;26;20025;-70
2024/04/11 02:04:23;;;;;;;9.77;3.13;;;9.90;99.00;;;;;;5433749;26;20510;-70
2024/04/11 02:06:51;;;;;;;8.43;3.05;;;9.90;98.90;;;;;;5433063;26;19999;-70
2024/04/11 02:09:22;;;;;;;8.63;3.30;;;10.00;98.40;;;;;;5435012;26;20035;-70
2024/04/11 02:11:51;;;;;;;11.02;3.47;;;9.90;98.90;;;;;;5431549;26;20371;-73
2024/04/11 02:14:18;;;;;;;4.93;2.72;;;9.90;98.90;;;;;;5431465;26;20189;-70
2024/04/11 02:16:44;;;;;;;7.03;2.70;;;9.90;98.70;;;;;;5421252;26;20025;-70
2024/04/11 02:19:12;;;;;;;10.50;3.10;;;9.90;98.90;;;;;;5428131;26;20050;-69
2024/04/11 02:21:40;;;;;;;;;;;9.90;98.90;;;;;;5445047;26;20017;-69
2024/04/11 02:24:06;;;;;;;10.32;3.40;;;9.90;98.90;;;;;;5437722;26;20362;-69
2024/04/11 02:26:35;;;;;;;7.88;2.90;;;9.90;98.90;;;;;;5417498;26;20137;-70
2024/04/11 02:29:01;;;;;;;10.48;3.22;;;9.90;98.90;;;;;;5405483;26;20012;-70
2024/04/11 02:31:27;;;;;;;11.93;3.20;;;9.80;98.80;;;;;;5400312;26;20093;-70
2024/04/11 02:33:55;;;;;;;9.48;3.13;;;9.80;98.80;;;;;;5400747;26;20507;-69
2024/04/11 02:36:20;;;;;;;6.55;2.95;;;9.80;98.80;;;;;;5394122;26;20068;-72
2024/04/11 02:38:46;;;;;;;6.78;3.20;;;9.80;98.80;;;;;;5395063;26;20022;-69
2024/04/11 02:41:12;;;;;;;9.82;3.35;;;9.80;98.90;;;;;;5417777;26;20062;-70
2024/04/11 02:43:39;;;;;;;8.50;2.97;;;9.80;98.80;;;;;;5438372;26;20025;-70
2024/04/11 02:46:15;;;;;;;12.63;2.78;;;9.80;98.90;;;;;;5437704;26;20002;-69
2024/04/11 02:48:47;;;;;;;8.93;2.90;;;9.80;98.80;;;;;;5438693;26;19999;-70
2024/04/11 02:51:14;;;;;;;9.52;3.05;;;9.80;98.80;;;;;;5433706;26;20051;-71
2024/04/11 02:53:39;;;;;;;8.55;2.63;;;9.80;98.70;;;;;;5437546;26;20013;-69
2024/04/11 02:56:09;;;;;;;9.82;2.85;;;9.80;98.70;;;;;;5437057;26;19999;-70
2024/04/11 02:58:38;;;;;;;8.93;2.80;;;9.80;98.70;;;;;;5439113;26;20076;-70
2024/04/11 03:01:06;;;;;;;9.23;3.42;;;9.80;98.70;;;;;;5436631;26;20007;-70
2024/04/11 03:03:32;;;;;;;7.70;2.92;;;9.80;98.70;;;;;;5466802;26;20617;-70
2024/04/11 03:06:17;;;;;;;11.90;3.20;;;9.80;98.70;;;;;;5428338;26;20005;-70
2024/04/11 03:08:44;;;;;;;11.45;3.70;;;9.80;98.70;;;;;;5434426;26;20006;-70
2024/04/11 03:11:11;;;;;;;13.25;3.10;;;9.80;98.60;;;;;;5431116;26;20018;-72
2024/04/11 03:13:40;;;;;;;5.65;2.70;;;9.80;98.80;;;;;;5443104;26;20014;-69
2024/04/11 03:16:06;;;;;;;11.05;3.72;;;9.80;98.80;;;;;;5440105;26;20007;-70
2024/04/11 03:18:34;;;;;;;6.63;2.92;;;9.80;98.80;;;;;;5439456;26;20702;-70
2024/04/11 03:21:00;;;;;;;4.80;3.00;;;9.80;98.80;;;;;;5405780;26;20366;-70
2024/04/11 03:23:29;;;;;;;8.98;3.40;;;9.80;98.90;;;;;;5406281;26;20742;-70
2024/04/11 03:25:55;;;;;;;9.50;3.30;;;9.80;98.80;;;;;;5406112;26;20011;-72
2024/04/11 03:28:21;;;;;;;9.77;2.90;;;9.70;98.70;;;;;;5398085;26;20000;-71
2024/04/11 03:30:53;;;;;;;9.43;3.13;;;9.80;98.70;;;;;;5391324;26;20016;-69
2024/04/11 03:33:19;;;;;;;13.25;3.28;;;9.80;98.80;;;;;;5399033;26;20077;-70
2024/04/11 03:35:56;;;;;;;5.95;2.83;;;9.80;98.70;;;;;;5421700;26;20038;-70
2024/04/11 03:38:24;;;;;;;8.40;3.05;;;9.70;98.60;;;;;;5440028;26;20003;-69
2024/04/11 03:41:02;;;;;;;17.00;3.53;;;9.80;98.70;;;;;;5429306;26;20027;-70
2024/04/11 03:43:29;;;;;;;6.93;2.80;;;9.80;98.60;;;;;;5432377;26;20017;-69
2024/04/11 03:46:09;;;;;;;5.30;2.83;;;9.80;98.50;;;;;;5433490;26;20014;-69
2024/04/11 03:48:35;;;;;;;4.53;2.33;;;9.80;98.50;;;;;;5435317;26;20003;-70
2024/04/11 03:51:18;;;;;;;7.57;2.85;;;9.80;98.50;;;;;;5431023;26;19995;-70
2024/04/11 03:53:44;;;;;;;6.80;3.13;;;9.80;98.40;;;;;;5426701;26;20451;-68
2024/04/11 03:56:14;;;;;;;5.40;2.70;;;9.80;98.40;;;;;;5437598;26;20007;-70
2024/04/11 03:58:40;;;;;;;5.03;2.33;;;9.80;98.40;;;;;;5432814;26;20046;-68
2024/04/11 04:01:15;;;;;;;5.65;2.25;;;9.80;98.40;;;;;;5426467;26;19995;-70
2024/04/11 04:03:41;;;;;;;5.28;2.70;;;9.80;98.40;;;;;;5436550;26;19999;-70
2024/04/11 04:06:08;;;;;;;7.25;2.95;;;9.80;98.40;;;;;;5439153;26;20130;-70
2024/04/11 04:08:35;;;;;;;9.80;3.13;;;9.80;98.40;;;;;;5458083;26;20012;-70
2024/04/11 04:11:00;;;;;;;10.25;2.90;;;9.80;98.30;;;;;;5429167;26;20080;-70
2024/04/11 04:13:28;;;;;;;9.02;2.75;;;9.80;98.30;;;;;;5431778;26;19999;-69
2024/04/11 04:15:55;;;;;;;5.32;2.53;;;9.80;98.30;;;;;;5428780;26;20003;-69
2024/04/11 04:18:21;;;;;;;8.60;2.80;;;9.80;98.30;;;;;;5425909;26;20000;-71
2024/04/11 04:20:57;;;;;;;9.07;2.90;;;9.80;98.30;;;;;;5433537;26;20067;-69
2024/04/11 04:23:24;;;;;;;7.75;2.33;;;9.80;98.30;;;;;;5431734;26;20373;-69
2024/04/11 04:25:59;;;;;;;8.82;2.75;;;9.80;98.30;;;;;;5438730;26;20003;-73
2024/04/11 04:28:45;;;;;;;11.63;3.30;;;9.80;98.30;;;;;;5435078;26;20006;-68
2024/04/11 04:31:21;;;;;;;5.57;2.95;;;9.80;98.30;;;;;;5426344;26;19999;-69
2024/04/11 04:33:47;;;;;;;8.50;2.90;;;9.80;98.40;;;;;;5430139;26;20076;-66
2024/04/11 04:36:24;;;;;;;7.82;2.33;;;9.80;98.30;;;;;;5420322;26;20007;-66
2024/04/11 04:38:50;;;;;;;11.65;2.83;;;9.70;98.30;;;;;;5433308;26;20021;-67
2024/04/11 04:41:20;;;;;;;5.88;2.67;;;9.80;98.30;;;;;;5436858;26;19994;-65
2024/04/11 04:43:54;;;;;;;6.38;2.83;;;9.80;98.20;;;;;;5434299;26;20076;-66
2024/04/11 04:46:30;;;;;;;4.63;2.70;;;9.80;98.30;;;;;;5435368;26;20314;-66
2024/04/11 04:48:57;;;;;;;5.75;2.78;;;9.70;98.20;;;;;;5439010;26;20002;-66
2024/04/11 04:51:24;;;;;;;4.82;2.72;;;9.70;98.20;;;;;;5433463;26;20005;-65
2024/04/11 04:53:50;;;;;;;7.25;2.63;;;9.80;98.20;;;;;;5431873;26;20003;-66
2024/04/11 04:56:17;;;;;;;9.43;2.72;;;9.80;98.20;;;;;;5429052;26;19999;-66
2024/04/11 04:58:49;;;;;;;8.40;2.83;;;9.80;98.20;;;;;;5424824;26;20004;-66
2024/04/11 05:01:15;;;;;;;5.07;2.40;;;9.80;98.10;;;;;;5436861;26;19998;-67
2024/04/11 05:03:43;;;;;;;7.82;2.38;;;9.90;98.00;;;;;;5437900;26;20031;-66
2024/04/11 05:06:09;;;;;;;6.50;3.05;;;9.90;98.10;;;;;;5394175;26;20018;-67
2024/04/11 05:08:35;;;;;;;4.38;2.42;;;9.90;98.00;;;;;;5391695;26;20305;-65
2024/04/11 05:11:10;;;;;;;3.20;2.08;;;9.90;98.00;;;;;;5405874;26;20071;-66
2024/04/11 05:13:43;;;;;;;4.53;2.35;;;10.00;97.30;;;;;;5412440;26;20011;-66
2024/04/11 05:16:10;;;;;;;4.88;2.33;;;10.00;97.20;;;;;;5389518;26;20022;-66
2024/04/11 05:18:39;;;;;;;8.13;2.50;;;10.10;97.10;;;;;;5394933;26;20109;-66
2024/04/11 05:21:19;;;;;;;5.78;2.08;;;10.20;96.90;;;;;;5441428;26;20042;-66
2024/04/11 05:23:45;;;;;;;9.68;2.08;;;10.20;96.70;;;;;;5425213;26;20027;-66
2024/04/11 05:26:23;;;;;;;3.95;1.88;;;10.30;96.70;;;;;;5435606;26;19995;-66
2024/04/11 05:28:51;;;;;;;3.67;1.80;;;10.40;96.60;;;;;;5429151;26;20532;-66
2024/04/11 05:31:18;;;;;;;;;;;10.40;96.40;;;;;;5435220;26;20063;-66
2024/04/11 05:33:53;;;;;;;8.50;1.92;;;10.50;96.30;;;;;;5436199;26;19924;-66
2024/04/11 05:36:28;;;;;;;5.85;1.90;;;10.60;96.00;;;;;;5430227;26;20060;-66
2024/04/11 05:38:54;;;;;;;4.20;1.83;;;10.70;96.00;;;;;;5427423;26;20002;-66
2024/04/11 05:41:20;;;;;;;9.52;2.05;;;10.70;95.90;;;;;;5438927;26;20010;-66
2024/04/11 05:43:49;;;;;;;6.70;1.67;;;10.80;95.80;;;;;;5438523;26;19998;-66
2024/04/11 05:46:19;;;;;;;5.30;1.65;;;10.80;95.90;;;;;;5425998;26;20013;-67
2024/04/11 05:48:47;;;;;;;7.10;1.77;;;10.90;95.80;;;;;;5439292;26;20101;-66
2024/04/11 05:51:14;;;;;;;6.07;1.75;;;10.90;95.80;;;;;;5434699;26;20010;-67
2024/04/11 05:53:41;;;;;;;9.48;1.95;;;11.00;95.80;;;;;;5438780;26;20072;-66
2024/04/11 05:56:08;;;;;;;5.70;1.75;;;11.00;95.80;;;;;;5439670;26;20006;-65
2024/04/11 05:58:35;;;;;;;4.53;1.70;;;11.10;95.70;;;;;;5426882;26;20014;-65
2024/04/11 06:01:05;;;;;;;3.90;1.58;;;11.10;95.70;;;;;;5400159;26;20003;-67
2024/04/11 06:03:34;;;;;;;7.32;1.90;;;11.20;95.70;;;;;;5393910;26;20004;-68
2024/04/11 06:05:59;;;;;;;10.93;1.60;;;11.20;95.70;;;;;;5422053;26;20015;-66
2024/04/11 06:08:25;;;;;;;6.18;1.63;;;11.30;95.50;;;;;;5444191;26;20086;-66
2024/04/11 06:10:51;;;;;;;5.55;1.45;;;11.30;95.70;;;;;;5440494;26;19995;-66
2024/04/11 06:13:18;;;;;;;7.13;1.52;;;11.40;95.70;;;;;;5428632;26;20013;-68
2024/04/11 06:15:47;;;;;;;6.15;1.50;;;11.50;95.50;;;;;;5438107;26;20339;-68
2024/04/11 06:18:14;;;;;;;4.82;1.58;;;11.50;95.20;;;;;;5409545;26;20479;-69
2024/04/11 06:20:41;;;;;;;15.20;1.90;;;11.60;95.30;;;;;;5405306;26;20022;-68
2024/04/11 06:23:09;;;;;;;9.57;1.75;;;11.50;95.00;;;;;;5388844;26;20000;-69
2024/04/11 06:25:39;;;;;;;7.85;1.40;;;11.60;95.00;;;;;;5397550;26;20003;-67
2024/04/11 06:28:05;;;;;;;6.70;1.70;;;11.60;95.10;;;;;;5397538;26;20402;-68
2024/04/11 06:30:38;;;;;;;4.03;1.42;;;11.70;95.10;;;;;;5406424;26;19996;-69
2024/04/11 06:33:11;;;;;;;10.65;2.35;;;11.70;94.80;;;;;;5395159;26;20004;-69
2024/04/11 06:35:37;;;;;;;6.45;1.55;;;11.70;94.90;;;;;;5424856;26;20080;-68
2024/04/11 06:38:05;;;;;;;11.77;1.73;;;11.70;94.90;;;;;;5417765;26;19998;-69
2024/04/11 06:40:32;;;;;;;8.57;2.28;;;11.80;94.70;;;;;;5444443;26;20009;-68
2024/04/11 06:42:59;;;;;;;8.00;1.77;;;11.90;95.10;;;;;;5446405;26;19991;-68
2024/04/11 06:45:25;;;;;;;3.25;1.23;;;11.90;95.10;;;;;;5437804;26;20010;-69
2024/04/11 06:47:52;;;;;;;5.95;1.58;;;11.90;95.00;;;;;;5444605;26;19999;-70
2024/04/11 06:50:20;;;;;;;6.17;1.87;;;12.00;94.90;;;;;;5434249;26;20369;-69
2024/04/11 06:52:47;;;;;;;8.55;1.67;;;12.00;94.70;;;;;;5438490;26;20498;-68
2024/04/11 06:55:14;;;;;;;5.35;1.58;;;12.10;94.90;;;;;;5440358;26;20011;-69
2024/04/11 06:57:45;;;;;;;8.13;1.40;;;12.20;95.00;;;;;;5443426;26;20466;-68
2024/04/11 07:00:14;;;;;;;4.72;1.50;;;12.30;94.80;;;;;;5438760;26;19991;-69
2024/04/11 07:02:46;;;;;;;4.18;1.50;;;12.30;94.40;;;;;;5443168;26;19999;-68
2024/04/11 07:05:13;;;;;;;5.28;1.30;;;12.40;94.70;;;;;;5438702;26;20007;-68
2024/04/11 07:07:45;;;;;;;7.30;1.33;;;12.40;94.40;;;;;;5422805;26;20000;-69
2024/04/11 07:10:24;;;;;;;5.40;1.88;;;12.50;94.40;;;;;;5397140;26;20392;-69
2024/04/11 07:12:53;;;;;;;9.25;1.48;;;12.50;94.00;;;;;;5397607;26;20528;-67
2024/04/11 07:15:19;;;;;;;8.93;2.00;;;12.60;93.70;;;;;;5399643;26;20441;-67
2024/04/11 07:17:56;;;;;;;6.07;1.10;;;12.60;93.70;;;;;;5407391;26;20003;-69
2024/04/11 07:20:25;;;;;;;7.93;1.25;;;12.60;93.20;;;;;;5422734;26;19999;-68
2024/04/11 07:22:54;;;;;;;6.97;1.27;;;12.60;93.50;;;;;;5443311;26;22307;-68
2024/04/11 07:25:21;;;;;;;2.85;1.30;;;12.70;93.30;;;;;;5439407;26;20356;-69
2024/04/11 07:27:46;;;;;;;10.25;1.20;;;12.80;93.50;;;;;;5440158;26;20043;-68
2024/04/11 07:30:12;;;;;;;5.90;1.58;;;12.70;93.20;;;;;;5441518;26;20561;-68
2024/04/11 07:32:40;;;;;;;3.50;0.90;;;12.80;93.30;;;;;;5438907;26;20512;-69
2024/04/11 07:35:12;;;;;;;4.03;1.23;;;12.80;92.80;;;;;;5433277;26;20003;-68
2024/04/11 07:37:37;;;;;;;8.38;1.63;;;12.80;93.10;;;;;;5438218;26;20019;-67
2024/04/11 07:40:07;;;;;;;6.45;1.17;;;12.80;93.10;;;;;;5435330;26;20371;-67
2024/04/11 07:42:55;;;;;;;3.45;1.10;;;12.80;92.90;;;;;;5433433;26;20542;-67
2024/04/11 07:45:30;;;;;;;2.97;1.10;;;12.80;92.70;;;;;;5433051;26;20514;-68
2024/04/11 07:47:58;;;;;;;4.93;1.27;;;12.90;92.90;;;;;;5426233;26;20006;-68
2024/04/11 07:50:26;;;;;;;;;;;12.90;92.70;;;;;;5437653;26;20010;-68
2024/04/11 07:52:52;;;;;;;12.95;1.15;;;12.80;92.60;;;;;;5441384;26;19952;-67
2024/04/11 07:55:20;;;;;;;5.07;1.05;;;12.80;92.70;;;;;;5439246;26;20005;-68
2024/04/11 07:57:46;;;;;;;6.75;1.35;;;12.90;92.70;;;;;;5428273;26;20014;-69
2024/04/11 08:00:20;;;;;;;8.68;1.15;;;12.90;92.70;;;;;;5441285;26;19999;-68
2024/04/11 08:02:48;;;;;;;8.82;1.08;;;12.90;92.60;;;;;;5429599;26;19999;-69
2024/04/11 08:05:15;;;;;;;3.60;1.25;;;12.90;92.80;;;;;;5442587;26;19999;-69
2024/04/11 08:07:42;;;;;;;4.70;1.08;;;12.90;92.50;;;;;;5439266;26;20021;-67
2024/04/11 08:10:09;;;;;;;3.88;1.13;;;12.90;92.40;;;;;;5435413;26;20010;-67
2024/04/11 08:12:35;;;;;;;8.25;1.17;;;12.90;92.60;;;;;;5437292;26;20470;-68
2024/04/11 08:15:02;;;;;;;7.75;1.17;;;12.90;92.50;;;;;;5432591;26;20034;-69
2024/04/11 08:17:29;;;;;;;6.13;1.42;;;13.00;92.40;;;;;;5440279;26;19995;-68
2024/04/11 08:19:55;;;;;;;3.72;1.20;;;13.00;92.40;;;;;;5431179;26;20011;-67
2024/04/11 08:22:22;;;;;;;4.45;1.17;;;13.10;92.40;;;;;;5429036;26;19999;-69
2024/04/11 08:24:49;;;;;;;6.05;1.33;;;13.10;92.70;;;;;;5398930;26;20661;-68
2024/04/11 08:27:15;;;;;;;8.43;1.05;;;13.10;92.50;;;;;;5439289;26;19995;-68
2024/04/11 08:29:40;;;;;;;7.82;1.27;;;13.20;92.50;;;;;;5432871;26;20002;-67
2024/04/11 08:32:06;;;;;;;8.38;1.38;;;13.20;92.70;;;;;;5440782;26;19995;-68
2024/04/11 08:34:32;;;;;;;2.45;0.77;;;13.20;92.50;;;;;;5426716;26;19994;-68
2024/04/11 08:36:58;;;;;;;6.15;1.23;;;13.20;92.90;;;;;;5429728;26;20164;-67
2024/04/11 08:39:23;;;;;;;6.05;1.02;;;13.20;93.10;;;;;;5439713;26;20085;-67
2024/04/11 08:41:51;;;;;;;6.18;0.98;;;13.20;93.40;;;;;;5434582;26;19999;-68
2024/04/11 08:44:18;;;;;;;6.68;1.20;;;13.30;93.20;;;;;;5436249;26;20292;-67
2024/04/11 08:46:44;;;;;;;7.65;1.13;;;13.30;93.20;;;;;;5424914;26;19999;-67
2024/04/11 08:49:10;;;;;;;8.48;1.27;;;13.30;93.20;;;;;;5439190;26;20003;-67
2024/04/11 08:51:39;;;;;;;3.88;1.13;;;13.30;93.20;;;;;;5442065;26;20030;-69
2024/04/11 08:54:07;;;;;;;4.82;1.35;;;13.30;93.00;;;;;;5433402;26;20005;-67
2024/04/11 08:56:33;;;;;;;4.53;1.00;;;13.40;93.30;;;;;;5434988;26;20467;-68
2024/04/11 08:58:59;;;;;;;6.40;1.27;;;13.50;93.40;;;;;;5436445;26;20018;-67
2024/04/11 09:01:26;;;;;;;7.03;1.15;;;13.40;92.80;;;;;;5431068;26;20003;-67
2024/04/11 09:03:52;;;;;;;7.85;1.42;;;13.50;93.00;;;;;;5436647;26;20375;-67
2024/04/11 09:06:28;;;;;;;6.70;1.48;;;13.50;93.10;;;;;;5438752;26;20344;-70
2024/04/11 09:08:57;;;;;;;6.47;1.40;;;13.60;93.20;;;;;;5439315;26;20003;-68
2024/04/11 09:11:25;;;;;;;7.18;1.60;;;13.60;92.80;;;;;;5431202;26;19995;-68
2024/04/11 09:13:51;;;;;;;5.38;1.30;;;13.60;92.80;;;;;;5441988;26;20872;-67
2024/04/11 09:16:21;;;;;;;3.72;1.50;;;13.60;92.90;;;;;;5442014;26;20010;-68
2024/04/11 09:19:22;;;;;;;5.88;1.33;;;13.60;92.80;;;;;;5437130;26;20003;-68
2024/04/11 09:21:48;;;;;;;5.53;1.50;;;13.70;93.60;;;;;;5395731;26;20002;-68
2024/04/11 09:24:23;;;;;;;6.07;1.40;;;13.70;93.40;;;;;;5438369;26;19995;-67
2024/04/11 09:26:48;;;;;;;6.05;1.30;;;13.60;93.40;;;;;;5434628;26;19994;-68
2024/04/11 09:29:17;;;;;;;6.68;1.80;;;13.60;94.00;;;;;;5439662;26;20450;-70
2024/04/11 09:31:43;;;;;;;8.38;1.10;;;13.60;94.50;;;;;;5432950;26;20016;-67
2024/04/11 09:34:13;;;;;;;3.70;0.80;;;13.60;94.60;;;;;;5446808;26;20002;-67
2024/04/11 09:36:52;;;;;;;5.95;1.10;;;13.70;95.00;;;;;;5441667;26;20067;-67
2024/04/11 09:42:11;;;;;;;10.48;1.73;;;13.60;95.10;;;;;;5432450;26;20025;-68
2024/04/11 09:44:46;;;;;;;5.40;1.17;;;13.70;95.40;;;;;;5434870;26;20017;-67
2024/04/11 09:47:19;;;;;;;5.85;1.40;;;13.70;95.30;;;;;;5442589;26;20602;-68
2024/04/11 09:49:53;;;;;;;5.15;0.85;;;13.70;95.40;;;;;;5436162;26;20017;-68
2024/04/11 09:52:27;;;;;;;6.43;1.20;;;13.70;95.50;;;;;;5442938;26;20013;-69
2024/04/11 09:54:55;;;;;;;6.63;1.48;;;13.70;95.60;;;;;;5431595;26;19996;-69
2024/04/11 09:57:23;;;;;;;7.80;1.50;;;13.80;95.70;;;;;;5433557;26;20014;-71
2024/04/11 09:59:52;;;;;;;7.38;1.75;;;13.80;95.40;;;;;;5443506;26;20888;-68
2024/04/11 10:02:20;;;;;;;5.30;1.10;;;13.80;95.90;;;;;;5441874;26;19998;-69
2024/04/11 10:04:47;;;;;;;8.25;1.27;;;13.90;96.00;;;;;;5431263;26;20364;-68
2024/04/11 10:07:19;;;;;;;7.17;1.33;;;14.00;95.40;;;;;;5431902;26;20105;-69
2024/04/11 10:09:54;;;;;;;8.30;1.40;;;14.00;95.80;;;;;;5439221;26;20076;-68
2024/04/11 10:12:20;;;;;;;5.35;1.40;;;14.10;96.00;;;;;;5435366;26;19999;-69
2024/04/11 10:15:18;;;;;;;9.07;1.10;;;14.20;95.60;;;;;;5442939;26;20010;-69
2024/04/11 10:18:11;;;;;;;3.25;1.42;;;14.20;95.40;;;;;;5430124;26;20003;-68
2024/04/11 10:20:42;;;;;;;6.72;1.52;;;14.20;95.10;;;;;;5434506;26;19999;-67
2024/04/11 10:23:09;;;;;;;5.25;1.60;;;14.20;95.00;;;;;;5427544;26;20004;-67
2024/04/11 10:25:39;;;;;;;6.73;1.70;;;14.30;95.50;;;;;;5434549;26;19991;-69
2024/04/11 10:28:20;;;;;;;8.13;1.48;;;14.30;94.90;;;;;;5435066;26;20269;-67
2024/04/11 10:30:51;;;;;;;7.78;1.88;;;14.40;95.20;;;;;;5432903;26;20003;-71
2024/04/11 10:33:29;;;;;;;5.65;2.00;;;14.30;95.30;;;;;;5427393;26;20010;-69
2024/04/11 10:35:56;;;;;;;11.35;2.00;;;14.40;95.30;;;;;;5432712;26;20467;-68
2024/04/11 10:38:27;;;;;;;8.75;1.92;;;14.30;95.30;;;;;;5444598;26;20010;-69
2024/04/11 10:40:53;;;;;;;12.43;2.13;;;14.30;95.00;;;;;;5421383;26;19995;-68
2024/04/11 10:43:24;;;;;;;5.90;1.98;;;14.30;95.00;;;;;;5444133;26;20457;-67
2024/04/11 10:45:50;;;;;;;9.60;2.67;;;14.40;95.20;;;;;;5435087;26;20541;-67
2024/04/11 10:48:17;;;;;;;10.55;2.72;;;14.40;95.10;;;;;;5437080;26;20015;-67
2024/04/11 10:50:44;;;;;;;9.85;1.75;;;14.40;94.80;;;;;;5438857;26;20018;-68
2024/04/11 10:53:12;;;;;;;7.95;2.00;;;14.50;95.00;;;;;;5441241;26;21684;-67
2024/04/11 10:55:43;;;;;;;8.55;1.55;;;14.60;94.90;;;;;;5436910;26;20018;-68
2024/04/11 10:58:13;;;;;;;4.30;1.45;;;14.50;94.80;;;;;;5440070;26;20002;-67
2024/04/11 11:03:40;;;;;;;6.68;2.17;;;14.60;94.80;;;;;;5428520;26;20010;-67
2024/04/11 11:06:27;;;;;;;6.43;1.20;;;14.60;94.70;;;;;;5433227;26;20014;-68
2024/04/11 11:08:54;;;;;;;5.13;1.33;;;14.60;94.70;;;;;;5422327;26;20399;-68
2024/04/11 11:11:23;;;;;;;6.80;2.07;;;14.60;94.70;;;;;;5435158;26;20353;-68
2024/04/11 11:13:52;;;;;;;9.30;1.63;;;14.60;94.80;;;;;;5444986;26;20099;-67
2024/04/11 11:16:31;;;;;;;13.77;2.20;;;14.60;94.70;;;;;;5439273;26;19999;-67
2024/04/11 11:18:58;;;;;;;8.27;1.77;;;14.70;94.90;;;;;;5428209;26;20018;-68
2024/04/11 11:21:25;;;;;;;6.97;2.00;;;14.70;95.00;;;;;;5444679;26;20027;-67
2024/04/11 11:23:59;;;;;;;4.83;1.87;;;14.80;95.00;;;;;;5429985;26;20017;-68
2024/04/11 11:26:35;;;;;;;6.70;1.98;;;14.90;95.10;;;;;;5434970;26;20007;-67
2024/04/11 11:29:09;;;;;;;6.07;1.75;;;14.90;95.00;;;;;;5441852;26;19995;-68
2024/04/11 11:31:38;;;;;;;12.23;1.30;;;15.00;95.00;;;;;;5444554;26;19999;-69
2024/04/11 11:34:09;;;;;;;8.55;1.77;;;15.00;95.10;;;;;;5431925;26;20010;-68
2024/04/11 11:36:40;;;;;;;5.47;1.48;;;15.10;95.30;;;;;;5440642;26;19999;-67
2024/04/11 11:39:09;;;;;;;8.30;1.95;;;15.10;95.10;;;;;;5432551;26;20014;-69
2024/04/11 11:41:37;;;;;;;9.35;2.20;;;15.10;95.00;;;;;;5438088;26;20006;-67
2024/04/11 11:44:17;;;;;;;12.20;1.67;;;15.10;95.10;;;;;;5439542;26;20075;-67
2024/04/11 11:46:50;;;;;;;7.47;2.20;;;15.20;95.10;;;;;;5430948;26;20569;-66
2024/04/11 11:49:18;;;;;;;4.88;1.38;;;15.20;95.10;;;;;;5439564;26;20042;-69
2024/04/11 11:51:47;;;;;;;4.57;1.35;;;15.20;95.20;;;;;;5431078;26;20530;-67
2024/04/11 11:54:12;;;;;;;4.38;1.25;;;15.30;95.30;;;;;;5440951;26;20039;-68
2024/04/11 11:56:39;;;;;;;7.32;1.17;;;15.40;95.20;;;;;;5443340;26;20003;-68
2024/04/11 11:59:05;;;;;;;4.70;1.50;;;15.60;95.50;;;;;;5429532;26;20000;-68
2024/04/11 12:01:43;;;;;;;7.88;1.50;;;15.70;95.50;;;;;;5443555;26;20017;-68
2024/04/11 12:04:10;;;;;;;6.18;1.33;;;15.70;95.30;;;;;;5445052;26;20039;-67
2024/04/11 12:06:36;;;;;;;4.70;1.13;;;15.80;95.30;;;;;;5443345;26;20014;-67
2024/04/11 12:09:10;;;;;;;4.90;1.00;;;15.90;95.30;;;;;;5436233;26;20340;-68
2024/04/11 12:14:34;;;;;;;6.45;1.30;;;15.90;95.40;;;;;;5434535;26;20399;-68
2024/04/11 12:17:05;;;;;;;2.85;1.30;;;15.90;95.60;;;;;;5437099;26;20285;-70
2024/04/11 12:19:31;;;;;;;4.55;1.35;;;15.90;95.90;;;;;;5428405;26;20345;-67
2024/04/11 12:22:10;;;;;;;6.72;1.42;;;16.00;95.90;;;;;;5430294;26;20043;-68
2024/04/11 12:24:39;;;;;;;7.28;1.63;;;16.10;96.10;;;;;;5441342;26;20002;-67
2024/04/11 12:27:10;;;;;;;11.23;1.65;;;16.10;96.20;;;;;;5439563;26;19995;-68
2024/04/11 12:29:40;;;;;;;4.88;1.50;;;16.10;95.70;;;;;;5438803;26;20017;-68
2024/04/11 12:32:17;;;;;;;4.13;1.25;;;16.10;95.80;;;;;;5442109;26;20009;-67
2024/04/11 12:34:45;;;;;;;2.30;1.15;;;16.10;95.70;;;;;;5432859;26;20022;-67
2024/04/11 12:37:13;;;;;;;5.82;1.60;;;16.20;95.60;;;;;;5439225;26;20032;-67
2024/04/11 12:39:45;;;;;;;5.00;1.77;;;16.30;95.60;;;;;;5434796;26;20010;-67
2024/04/11 12:42:17;;;;;;;6.07;1.83;;;16.30;95.70;;;;;;5441036;26;20833;-68
2024/04/11 12:44:45;;;;;;;4.47;1.30;;;16.40;95.90;;;;;;5426856;26;20029;-67
2024/04/11 12:47:16;;;;;;;9.85;1.50;;;16.40;95.90;;;;;;5434841;26;20452;-67
2024/04/11 12:49:47;;;;;;;6.00;1.23;;;16.50;96.10;;;;;;5435012;26;20028;-67
2024/04/11 12:52:23;;;;;;;5.50;1.40;;;16.50;96.40;;;;;;5442679;26;20038;-68
2024/04/11 12:55:00;;;;;;;9.73;1.65;;;16.60;96.70;;;;;;5443723;26;20022;-68
2024/04/11 12:57:28;;;;;;;5.18;1.52;;;16.50;96.70;;;;;;5432752;26;20000;-67
2024/04/11 13:00:07;;;;;;;5.78;1.40;;;16.40;96.70;;;;;;5438318;26;19999;-68
2024/04/11 13:02:34;;;;;;;5.57;1.50;;;16.50;96.90;;;;;;5440747;26;20067;-67
2024/04/11 13:05:05;;;;;;;6.53;1.40;;;16.40;96.90;;;;;;5442015;26;20132;-67
2024/04/11 13:07:34;;;;;;;6.55;1.58;;;16.60;97.20;;;;;;5443181;26;20080;-68